Time;durP1;ratioP1;P1;durP2;ratioP2;P2;SDS_P1;SDS_P2;PMS_P1;PMS_P2;Temp;Humidity;BMP_temperature;BMP_pressure;BME280_temperature;BME280_humidity;BME280_pressure;Samples;Min_cycle;Max_cycle;Signal;HPM_P1;HPM_P2
2023/04/10 00:01:34;;;;;;;5.63;2.13;;;;;;;;;;5026037;28;20412;-75
2023/04/10 00:04:05;;;;;;;4.85;2.08;;;;;;;;;;5027403;28;20052;-74
2023/04/10 00:06:35;;;;;;;8.13;2.42;;;;;;;;;;5027933;28;20056;-75
2023/04/10 00:09:05;;;;;;;4.45;2.25;;;;;;;;;;5027639;28;20057;-75
2023/04/10 00:11:36;;;;;;;7.78;2.50;;;;;;;;;;5026081;28;20045;-74
2023/04/10 00:14:06;;;;;;;5.72;2.40;;;;;;;;;;5027525;28;20060;-75
2023/04/10 00:16:36;;;;;;;3.63;2.13;;;;;;;;;;5027191;28;20049;-75
2023/04/10 00:19:06;;;;;;;5.70;2.30;;;;;;;;;;5027395;28;20053;-75
2023/04/10 00:21:39;;;;;;;6.88;2.30;;;;;;;;;;5027191;28;20050;-74
2023/04/10 00:24:10;;;;;;;4.07;2.05;;;;;;;;;;5026052;28;20045;-74
2023/04/10 00:26:41;;;;;;;7.88;2.40;;;;;;;;;;5024699;28;20045;-78
2023/04/10 00:29:11;;;;;;;4.72;2.00;;;;;;;;;;5026579;28;20056;-75
2023/04/10 00:31:41;;;;;;;9.52;1.83;;;;;;;;;;5025608;28;20053;-74
2023/04/10 00:34:12;;;;;;;4.22;1.90;;;;;;;;;;5025387;28;20057;-75
2023/04/10 00:36:46;;;;;;;5.80;2.05;;;;;;;;;;5027255;28;20037;-75
2023/04/10 00:39:16;;;;;;;5.78;2.20;;;;;;;;;;5027090;28;20060;-75
2023/04/10 00:41:47;;;;;;;4.03;1.63;;;;;;;;;;5026654;28;20041;-78
2023/04/10 00:44:17;;;;;;;3.78;1.90;;;;;;;;;;5027610;28;20046;-74
2023/04/10 00:46:49;;;;;;;5.18;1.85;;;;;;;;;;5025313;28;20065;-76
2023/04/10 00:49:19;;;;;;;2.30;1.55;;;;;;;;;;5027143;28;20045;-76
2023/04/10 00:51:50;;;;;;;3.35;1.65;;;;;;;;;;5026434;28;20053;-74
2023/04/10 00:54:21;;;;;;;5.60;1.70;;;;;;;;;;5024925;28;20064;-76
2023/04/10 00:56:56;;;;;;;6.95;1.60;;;;;;;;;;5027479;28;20045;-75
2023/04/10 00:59:26;;;;;;;2.90;1.65;;;;;;;;;;5026359;28;20049;-74
2023/04/10 01:01:56;;;;;;;3.58;1.80;;;;;;;;;;5026352;28;20527;-75
2023/04/10 01:04:28;;;;;;;2.65;1.92;;;;;;;;;;5025345;28;20061;-75
2023/04/10 01:07:02;;;;;;;3.05;1.70;;;;;;;;;;5025302;28;20045;-76
2023/04/10 01:10:04;;;;;;;2.05;1.55;;;;;;;;;;5025929;28;20508;-79
2023/04/10 01:12:38;;;;;;;5.10;1.92;;;;;;;;;;5026608;28;20056;-76
2023/04/10 01:15:17;;;;;;;3.85;1.52;;;;;;;;;;5025272;28;21144;-76
2023/04/10 01:17:57;;;;;;;4.43;1.80;;;;;;;;;;5026502;28;20046;-77
2023/04/10 01:20:35;;;;;;;8.77;1.73;;;;;;;;;;5027071;28;20042;-78
2023/04/10 01:23:19;;;;;;;4.32;1.60;;;;;;;;;;5026133;28;20053;-79
2023/04/10 01:26:11;;;;;;;7.38;1.60;;;;;;;;;;5026354;28;20050;-75
2023/04/10 01:28:55;;;;;;;3.28;1.70;;;;;;;;;;5025737;28;20546;-76
2023/04/10 01:31:50;;;;;;;2.60;1.83;;;;;;;;;;5025488;28;20053;-77
2023/04/10 01:34:31;;;;;;;2.80;1.80;;;;;;;;;;5026129;28;20057;-75
2023/04/10 01:37:04;;;;;;;7.30;2.20;;;;;;;;;;5008742;28;20416;-75
2023/04/10 01:39:39;;;;;;;2.65;1.52;;;;;;;;;;5025619;28;20393;-74
2023/04/10 01:42:13;;;;;;;3.15;1.88;;;;;;;;;;5024868;28;20065;-75
2023/04/10 01:44:45;;;;;;;3.42;2.17;;;;;;;;;;5033437;28;20049;-75
2023/04/10 01:47:17;;;;;;;3.53;1.90;;;;;;;;;;5034486;28;20048;-75
2023/04/10 01:49:48;;;;;;;3.25;1.98;;;;;;;;;;5035156;28;20045;-75
2023/04/10 01:52:21;;;;;;;6.00;2.15;;;;;;;;;;5034114;28;20046;-75
2023/04/10 01:55:08;;;;;;;2.60;1.70;;;;;;;;;;5025197;28;20132;-75
2023/04/10 01:57:48;;;;;;;4.18;2.22;;;;;;;;;;5010129;28;20068;-75
2023/04/10 02:00:20;;;;;;;5.80;2.03;;;;;;;;;;5025366;28;20057;-75
2023/04/10 02:02:53;;;;;;;4.80;1.98;;;;;;;;;;5026470;28;20057;-75
2023/04/10 02:05:31;;;;;;;3.78;2.20;;;;;;;;;;5025130;28;20440;-75
2023/04/10 02:08:15;;;;;;;3.28;2.13;;;;;;;;;;5009463;28;20424;-75
2023/04/10 02:10:58;;;;;;;6.97;2.05;;;;;;;;;;5025487;28;20053;-75
2023/04/10 02:13:32;;;;;;;6.15;2.20;;;;;;;;;;5026780;28;20053;-75
2023/04/10 02:16:06;;;;;;;4.95;2.03;;;;;;;;;;5029695;28;20045;-75
2023/04/10 02:18:40;;;;;;;2.80;1.80;;;;;;;;;;5029513;28;20060;-75
2023/04/10 02:21:11;;;;;;;3.20;2.17;;;;;;;;;;5028598;28;20053;-75
2023/04/10 02:23:42;;;;;;;5.43;2.25;;;;;;;;;;5029563;28;20056;-75
2023/04/10 02:26:15;;;;;;;2.33;1.90;;;;;;;;;;5029055;28;20520;-75
2023/04/10 02:28:47;;;;;;;2.08;1.88;;;;;;;;;;5028122;28;20054;-75
2023/04/10 02:31:19;;;;;;;5.85;2.25;;;;;;;;;;5028487;28;20061;-85
2023/04/10 02:33:50;;;;;;;4.90;1.80;;;;;;;;;;5029567;28;20530;-75
2023/04/10 02:36:21;;;;;;;6.72;1.90;;;;;;;;;;5028320;28;20057;-74
2023/04/10 02:38:55;;;;;;;6.50;2.30;;;;;;;;;;5028704;28;20423;-75
2023/04/10 02:41:26;;;;;;;2.20;2.00;;;;;;;;;;5027642;28;20049;-74
2023/04/10 02:43:57;;;;;;;4.72;2.08;;;;;;;;;;5027765;28;20076;-75
2023/04/10 02:46:29;;;;;;;3.88;2.10;;;;;;;;;;5027504;28;20054;-75
2023/04/10 02:48:59;;;;;;;4.70;2.03;;;;;;;;;;5029441;28;20535;-75
2023/04/10 02:51:31;;;;;;;6.05;2.28;;;;;;;;;;5027792;28;20049;-75
2023/04/10 02:54:03;;;;;;;5.13;2.50;;;;;;;;;;5027871;28;20078;-74
2023/04/10 02:56:35;;;;;;;4.20;2.58;;;;;;;;;;5028182;28;20053;-75
2023/04/10 02:59:05;;;;;;;5.47;2.63;;;;;;;;;;5027919;28;20058;-75
2023/04/10 03:01:38;;;;;;;3.83;2.63;;;;;;;;;;5027840;28;20132;-75
2023/04/10 03:04:08;;;;;;;3.55;2.58;;;;;;;;;;5027664;28;20053;-74
2023/04/10 03:06:41;;;;;;;3.40;2.40;;;;;;;;;;5028096;28;20046;-74
2023/04/10 03:09:11;;;;;;;6.25;2.45;;;;;;;;;;5029322;28;20056;-74
2023/04/10 03:11:42;;;;;;;4.47;2.65;;;;;;;;;;5027852;28;20049;-74
2023/04/10 03:14:13;;;;;;;4.68;2.80;;;;;;;;;;5029085;28;20060;-74
2023/04/10 03:16:43;;;;;;;6.05;2.55;;;;;;;;;;5011179;28;20049;-74
2023/04/10 03:19:14;;;;;;;3.97;2.50;;;;;;;;;;5027846;28;20045;-74
2023/04/10 03:21:46;;;;;;;5.55;2.53;;;;;;;;;;5027562;28;20080;-74
2023/04/10 03:24:17;;;;;;;5.90;2.70;;;;;;;;;;5027171;28;20049;-74
2023/04/10 03:26:48;;;;;;;5.22;2.50;;;;;;;;;;5028655;28;20053;-74
2023/04/10 03:29:18;;;;;;;5.32;2.42;;;;;;;;;;5027040;28;20516;-74
2023/04/10 03:31:49;;;;;;;3.90;2.53;;;;;;;;;;5028717;28;20050;-74
2023/04/10 03:34:20;;;;;;;5.88;2.35;;;;;;;;;;5026761;28;20057;-74
2023/04/10 03:36:51;;;;;;;5.45;2.67;;;;;;;;;;5027835;28;20531;-74
2023/04/10 03:39:23;;;;;;;5.65;2.88;;;;;;;;;;5028774;28;20049;-75
2023/04/10 03:41:54;;;;;;;5.15;2.75;;;;;;;;;;5027832;28;20057;-74
2023/04/10 03:44:26;;;;;;;3.95;2.47;;;;;;;;;;5026985;28;20064;-74
2023/04/10 03:46:57;;;;;;;7.50;2.70;;;;;;;;;;5027209;28;20053;-74
2023/04/10 03:49:28;;;;;;;5.53;2.65;;;;;;;;;;5026633;28;20065;-74
2023/04/10 03:52:04;;;;;;;4.68;3.05;;;;;;;;;;5026807;28;20415;-74
2023/04/10 03:54:35;;;;;;;4.38;2.60;;;;;;;;;;5026918;28;20049;-75
2023/04/10 03:57:07;;;;;;;3.38;2.70;;;;;;;;;;5026628;28;20076;-74
2023/04/10 03:59:37;;;;;;;6.82;2.63;;;;;;;;;;5026741;28;20385;-74
2023/04/10 04:02:12;;;;;;;5.38;3.10;;;;;;;;;;5027174;28;20045;-74
2023/04/10 04:04:45;;;;;;;3.88;2.65;;;;;;;;;;5025875;28;20444;-74
2023/04/10 04:07:40;;;;;;;3.75;2.60;;;;;;;;;;5028102;28;20049;-74
2023/04/10 04:10:20;;;;;;;6.95;3.17;;;;;;;;;;5026613;28;20049;-75
2023/04/10 04:13:16;;;;;;;5.20;2.95;;;;;;;;;;5027509;28;20053;-74
2023/04/10 04:16:07;;;;;;;4.32;2.60;;;;;;;;;;5026517;28;20500;-75
2023/04/10 04:18:45;;;;;;;7.38;3.15;;;;;;;;;;5026463;28;20049;-74
2023/04/10 04:21:45;;;;;;;5.68;2.97;;;;;;;;;;5031262;28;20362;-75
2023/04/10 04:24:25;;;;;;;6.07;2.90;;;;;;;;;;5026847;28;20053;-75
2023/04/10 04:27:06;;;;;;;3.53;2.90;;;;;;;;;;5026095;28;20431;-74
2023/04/10 04:29:48;;;;;;;5.78;3.15;;;;;;;;;;5025842;28;20060;-75
2023/04/10 04:32:25;;;;;;;6.60;3.20;;;;;;;;;;5026259;28;20531;-74
2023/04/10 04:34:55;;;;;;;4.90;2.90;;;;;;;;;;5027064;28;20049;-74
2023/04/10 04:38:01;;;;;;;9.50;3.55;;;;;;;;;;5043321;28;20065;-75
2023/04/10 04:40:57;;;;;;;6.03;2.85;;;;;;;;;;5027014;28;20072;-75
2023/04/10 04:43:46;;;;;;;4.38;2.88;;;;;;;;;;5029218;28;20057;-74
2023/04/10 04:46:24;;;;;;;8.63;3.22;;;;;;;;;;5027105;28;20045;-75
2023/04/10 04:49:22;;;;;;;9.45;3.22;;;;;;;;;;5026409;28;20060;-74
2023/04/10 04:52:09;;;;;;;3.33;2.67;;;;;;;;;;5029354;28;20057;-74
2023/04/10 04:54:47;;;;;;;3.30;2.63;;;;;;;;;;5025456;28;20049;-74
2023/04/10 04:57:34;;;;;;;4.93;2.88;;;;;;;;;;5011368;28;20538;-75
2023/04/10 05:00:21;;;;;;;3.60;2.78;;;;;;;;;;5025859;28;20056;-74
2023/04/10 05:03:15;;;;;;;5.18;3.03;;;;;;;;;;5034207;28;20065;-74
2023/04/10 05:06:13;;;;;;;5.82;2.80;;;;;;;;;;5025955;28;20160;-74
2023/04/10 05:08:51;;;;;;;6.10;3.05;;;;;;;;;;5026930;28;20049;-74
2023/04/10 05:11:43;;;;;;;4.25;3.05;;;;;;;;;;5027357;28;20056;-74
2023/04/10 05:14:37;;;;;;;5.35;3.17;;;;;;;;;;5027281;28;20053;-74
2023/04/10 05:17:25;;;;;;;6.53;3.30;;;;;;;;;;5025192;28;20050;-74
2023/04/10 05:20:10;;;;;;;4.97;3.17;;;;;;;;;;5011412;28;20056;-74
2023/04/10 05:22:45;;;;;;;7.15;3.13;;;;;;;;;;5025311;28;20527;-74
2023/04/10 05:25:35;;;;;;;5.32;2.88;;;;;;;;;;5028308;28;20066;-74
2023/04/10 05:28:31;;;;;;;7.05;3.22;;;;;;;;;;5025927;28;20050;-74
2023/04/10 05:31:21;;;;;;;9.48;3.25;;;;;;;;;;5026741;28;20058;-74
2023/04/10 05:34:10;;;;;;;7.63;3.25;;;;;;;;;;5026197;28;20050;-74
2023/04/10 05:37:07;;;;;;;3.90;3.10;;;;;;;;;;5027053;28;20053;-75
2023/04/10 05:39:45;;;;;;;5.70;3.20;;;;;;;;;;5025147;28;20053;-74
2023/04/10 05:42:27;;;;;;;3.72;2.95;;;;;;;;;;5033255;28;20049;-74
2023/04/10 05:45:18;;;;;;;6.28;2.92;;;;;;;;;;5025479;28;20057;-74
2023/04/10 05:48:06;;;;;;;4.90;3.60;;;;;;;;;;5026840;28;20389;-74
2023/04/10 05:50:55;;;;;;;4.72;3.30;;;;;;;;;;5031172;28;20515;-74
2023/04/10 05:53:35;;;;;;;6.75;3.20;;;;;;;;;;5029253;28;20054;-74
2023/04/10 05:56:24;;;;;;;6.15;3.28;;;;;;;;;;5036183;28;20053;-74
2023/04/10 05:59:27;;;;;;;5.13;2.92;;;;;;;;;;5029289;28;20054;-74
2023/04/10 06:01:57;;;;;;;7.90;3.67;;;;;;;;;;5030103;28;20396;-74
2023/04/10 06:04:27;;;;;;;9.90;3.08;;;;;;;;;;5028642;28;20053;-74
2023/04/10 06:07:01;;;;;;;3.95;2.83;;;;;;;;;;5029124;28;20049;-74
2023/04/10 06:09:34;;;;;;;3.53;2.85;;;;;;;;;;5028506;28;20080;-74
2023/04/10 06:12:07;;;;;;;5.18;3.38;;;;;;;;;;5028255;28;20053;-74
2023/04/10 06:14:39;;;;;;;6.45;3.15;;;;;;;;;;5028659;28;20509;-74
2023/04/10 06:17:10;;;;;;;5.13;3.13;;;;;;;;;;5028421;28;20053;-74
2023/04/10 06:19:42;;;;;;;7.88;3.40;;;;;;;;;;5028850;28;20408;-74
2023/04/10 06:22:12;;;;;;;7.57;3.33;;;;;;;;;;5028350;28;20504;-74
2023/04/10 06:24:42;;;;;;;4.60;3.40;;;;;;;;;;5030314;28;20056;-74
2023/04/10 06:27:13;;;;;;;5.15;3.60;;;;;;;;;;5028129;28;20057;-74
2023/04/10 06:29:46;;;;;;;5.32;3.60;;;;;;;;;;5028228;28;20072;-74
2023/04/10 06:32:22;;;;;;;6.18;3.50;;;;;;;;;;5028280;28;20508;-75
2023/04/10 06:34:52;;;;;;;4.85;3.38;;;;;;;;;;5027373;28;20534;-75
2023/04/10 06:37:31;;;;;;;5.32;3.40;;;;;;;;;;5028523;28;20049;-75
2023/04/10 06:40:10;;;;;;;6.57;3.47;;;;;;;;;;5028020;28;20061;-75
2023/04/10 06:42:41;;;;;;;8.02;3.53;;;;;;;;;;5029243;28;20045;-75
2023/04/10 06:45:23;;;;;;;5.43;3.40;;;;;;;;;;5028160;28;20053;-75
2023/04/10 06:47:53;;;;;;;6.95;3.80;;;;;;;;;;5029181;28;20056;-75
2023/04/10 06:50:24;;;;;;;6.90;4.18;;;;;;;;;;5029332;28;20044;-75
2023/04/10 06:52:58;;;;;;;7.57;3.80;;;;;;;;;;5028920;28;20476;-75
2023/04/10 06:55:29;;;;;;;4.93;3.45;;;;;;;;;;5028991;28;20051;-75
2023/04/10 06:57:59;;;;;;;7.38;3.80;;;;;;;;;;5029279;28;20427;-75
2023/04/10 07:00:30;;;;;;;7.78;4.15;;;;;;;;;;5027737;28;20053;-75
2023/04/10 07:03:00;;;;;;;7.63;4.28;;;;;;;;;;5029201;28;20045;-74
2023/04/10 07:05:31;;;;;;;8.40;3.85;;;;;;;;;;5029373;28;20056;-74
2023/04/10 07:08:00;;;;;;;8.13;4.00;;;;;;;;;;5029159;28;20519;-75
2023/04/10 07:10:31;;;;;;;4.55;3.80;;;;;;;;;;5027375;28;20068;-75
2023/04/10 07:13:01;;;;;;;7.75;3.72;;;;;;;;;;5028622;28;20072;-75
2023/04/10 07:15:32;;;;;;;5.82;3.70;;;;;;;;;;5028357;28;20148;-75
2023/04/10 07:18:02;;;;;;;8.30;4.35;;;;;;;;;;5028696;28;20052;-75
2023/04/10 07:20:32;;;;;;;16.40;4.13;;;;;;;;;;5028489;28;20056;-75
2023/04/10 07:23:02;;;;;;;7.75;3.83;;;;;;;;;;5028377;28;20405;-75
2023/04/10 07:25:34;;;;;;;5.93;3.97;;;;;;;;;;5028367;28;20060;-75
2023/04/10 07:28:04;;;;;;;6.18;3.72;;;;;;;;;;5028653;28;20037;-74
2023/04/10 07:30:35;;;;;;;5.32;3.63;;;;;;;;;;5028667;28;20377;-75
2023/04/10 07:33:05;;;;;;;7.50;3.67;;;;;;;;;;5028424;28;20085;-75
2023/04/10 07:35:36;;;;;;;5.10;3.38;;;;;;;;;;5028237;28;20045;-74
2023/04/10 07:38:06;;;;;;;6.85;3.60;;;;;;;;;;5028241;28;20045;-75
2023/04/10 07:40:39;;;;;;;6.18;3.78;;;;;;;;;;5028308;28;20045;-75
2023/04/10 07:43:09;;;;;;;8.07;3.50;;;;;;;;;;5027965;28;20041;-74
2023/04/10 07:45:39;;;;;;;7.35;3.60;;;;;;;;;;5028092;28;20057;-75
2023/04/10 07:48:11;;;;;;;8.63;4.00;;;;;;;;;;5027884;28;20049;-75
2023/04/10 07:50:41;;;;;;;6.78;3.28;;;;;;;;;;5028059;28;20045;-74
2023/04/10 07:53:12;;;;;;;4.93;3.50;;;;;;;;;;5027249;28;20089;-74
2023/04/10 07:55:47;;;;;;;6.70;3.55;;;;;;;;;;5028609;28;20045;-75
2023/04/10 07:58:19;;;;;;;3.97;2.85;;;;;;;;;;5027828;28;20049;-75
2023/04/10 08:00:49;;;;;;;6.57;3.85;;;;;;;;;;5027729;28;20045;-74
2023/04/10 08:03:20;;;;;;;7.03;3.88;;;;;;;;;;5027703;28;20049;-74
2023/04/10 08:05:51;;;;;;;4.97;3.38;;;;;;;;;;5027243;28;20053;-74
2023/04/10 08:08:22;;;;;;;13.23;3.92;;;;;;;;;;5027528;28;20595;-74
2023/04/10 08:10:52;;;;;;;5.28;3.88;;;;;;;;;;5027435;28;20516;-75
2023/04/10 08:13:25;;;;;;;6.85;3.55;;;;;;;;;;5026694;28;20064;-75
2023/04/10 08:15:56;;;;;;;7.03;4.15;;;;;;;;;;5027903;28;20049;-75
2023/04/10 08:18:25;;;;;;;6.32;3.78;;;;;;;;;;5027638;28;20492;-75
2023/04/10 08:20:55;;;;;;;5.68;3.53;;;;;;;;;;5027778;28;20042;-75
2023/04/10 08:23:25;;;;;;;4.43;3.08;;;;;;;;;;5027562;28;20424;-74
2023/04/10 08:25:57;;;;;;;5.13;3.30;;;;;;;;;;5027629;28;20061;-74
2023/04/10 08:28:28;;;;;;;7.22;3.55;;;;;;;;;;5027548;28;20054;-74
2023/04/10 08:30:57;;;;;;;9.32;3.85;;;;;;;;;;5027275;28;20056;-74
2023/04/10 08:33:28;;;;;;;6.97;2.42;;;;;;;;;;5026946;28;20045;-74
2023/04/10 08:35:59;;;;;;;4.63;3.28;;;;;;;;;;5027690;28;20056;-74
2023/04/10 08:38:31;;;;;;;7.05;3.00;;;;;;;;;;5027532;28;20121;-75
2023/04/10 08:41:00;;;;;;;4.95;3.25;;;;;;;;;;5027024;28;20050;-74
2023/04/10 08:43:33;;;;;;;6.35;3.42;;;;;;;;;;5027707;28;20519;-74
2023/04/10 08:46:04;;;;;;;5.05;3.33;;;;;;;;;;5027390;28;20076;-74
2023/04/10 08:48:52;;;;;;;7.22;3.22;;;;;;;;;;5027307;28;20037;-74
2023/04/10 08:51:28;;;;;;;5.50;3.28;;;;;;;;;;5026900;28;20404;-74
2023/04/10 08:54:07;;;;;;;5.97;3.38;;;;;;;;;;5025736;28;20046;-74
2023/04/10 08:56:41;;;;;;;5.07;3.40;;;;;;;;;;5026590;28;20049;-75
2023/04/10 08:59:11;;;;;;;8.13;2.95;;;;;;;;;;5026575;28;20062;-75
2023/04/10 09:01:42;;;;;;;7.53;3.47;;;;;;;;;;5026865;28;20530;-75
2023/04/10 09:04:12;;;;;;;5.95;3.20;;;;;;;;;;5026657;28;20052;-75
2023/04/10 09:06:43;;;;;;;5.65;3.13;;;;;;;;;;5027346;28;20037;-74
2023/04/10 09:09:15;;;;;;;7.15;2.97;;;;;;;;;;5026875;28;20045;-74
2023/04/10 09:11:54;;;;;;;5.25;3.00;;;;;;;;;;5009632;28;20060;-74
2023/04/10 09:14:32;;;;;;;4.55;2.97;;;;;;;;;;5026335;28;20056;-74
2023/04/10 09:17:28;;;;;;;8.98;2.90;;;;;;;;;;5026572;28;20071;-75
2023/04/10 09:19:59;;;;;;;14.80;3.50;;;;;;;;;;5026379;28;20057;-75
2023/04/10 09:22:33;;;;;;;3.80;2.55;;;;;;;;;;5026248;28;20049;-74
2023/04/10 09:25:04;;;;;;;15.65;3.42;;;;;;;;;;5026604;28;20053;-75
2023/04/10 09:27:36;;;;;;;4.97;2.97;;;;;;;;;;5026159;28;20053;-75
2023/04/10 09:30:08;;;;;;;12.13;3.15;;;;;;;;;;5027091;28;20050;-74
2023/04/10 09:32:39;;;;;;;7.60;3.08;;;;;;;;;;5026825;28;20056;-76
2023/04/10 09:35:13;;;;;;;8.48;3.40;;;;;;;;;;5025802;28;20056;-75
2023/04/10 09:37:45;;;;;;;7.45;3.47;;;;;;;;;;5026829;28;20052;-74
2023/04/10 09:40:24;;;;;;;9.10;3.20;;;;;;;;;;5026106;28;20062;-74
2023/04/10 09:42:56;;;;;;;8.10;3.00;;;;;;;;;;5026319;28;20412;-75
2023/04/10 09:45:47;;;;;;;10.15;3.05;;;;;;;;;;5025948;28;20057;-74
2023/04/10 09:48:17;;;;;;;4.15;2.78;;;;;;;;;;5025033;28;20062;-75
2023/04/10 09:50:48;;;;;;;3.97;3.20;;;;;;;;;;5025956;28;20053;-75
2023/04/10 09:53:20;;;;;;;7.15;2.70;;;;;;;;;;5026150;28;20041;-75
2023/04/10 09:55:51;;;;;;;6.90;2.67;;;;;;;;;;5025747;28;20061;-75
2023/04/10 09:58:21;;;;;;;6.18;2.70;;;;;;;;;;5025195;28;20045;-75
2023/04/10 10:00:52;;;;;;;9.30;2.83;;;;;;;;;;5026530;28;20703;-74
2023/04/10 10:03:25;;;;;;;7.22;2.67;;;;;;;;;;5026000;28;20042;-75
2023/04/10 10:05:56;;;;;;;7.47;2.60;;;;;;;;;;5026165;28;20058;-75
2023/04/10 10:08:26;;;;;;;9.45;2.60;;;;;;;;;;5025978;28;20053;-75
2023/04/10 10:11:00;;;;;;;12.50;2.67;;;;;;;;;;5026304;28;20057;-75
2023/04/10 10:13:38;;;;;;;5.30;2.60;;;;;;;;;;5026005;28;20038;-74
2023/04/10 10:16:18;;;;;;;8.20;3.00;;;;;;;;;;5024994;28;20484;-74
2023/04/10 10:18:55;;;;;;;11.00;3.30;;;;;;;;;;5026452;28;20049;-75
2023/04/10 10:21:28;;;;;;;10.68;3.05;;;;;;;;;;5026096;28;20057;-76
2023/04/10 10:24:00;;;;;;;4.35;3.22;;;;;;;;;;5025475;28;20049;-77
2023/04/10 10:26:33;;;;;;;5.45;2.78;;;;;;;;;;5026098;28;20686;-75
2023/04/10 10:29:10;;;;;;;4.82;3.00;;;;;;;;;;5025943;28;20116;-74
2023/04/10 10:31:42;;;;;;;12.20;2.88;;;;;;;;;;5025775;28;20578;-75
2023/04/10 10:34:15;;;;;;;6.90;2.95;;;;;;;;;;5025810;28;20053;-75
2023/04/10 10:36:46;;;;;;;4.95;2.63;;;;;;;;;;5029091;28;20045;-76
2023/04/10 10:39:41;;;;;;;6.13;2.88;;;;;;;;;;5029758;28;20049;-74
2023/04/10 10:42:30;;;;;;;9.18;2.60;;;;;;;;;;5031354;28;20049;-74
2023/04/10 10:45:06;;;;;;;;;;;;;;;;;;5050078;28;20789;-74
2023/04/10 10:47:52;;;;;;;5.65;2.45;;;;;;;;;;5049359;28;19928;-74
2023/04/10 10:50:22;;;;;;;4.65;2.50;;;;;;;;;;5049266;28;20072;-74
2023/04/10 10:52:56;;;;;;;5.63;1.95;;;;;;;;;;5025351;28;20056;-74
2023/04/10 10:55:27;;;;;;;7.55;2.05;;;;;;;;;;5038193;28;20049;-74
2023/04/10 10:58:04;;;;;;;5.65;2.15;;;;;;;;;;5038654;28;20408;-74
2023/04/10 11:00:50;;;;;;;13.40;2.00;;;;;;;;;;5048639;28;20045;-78
2023/04/10 11:03:21;;;;;;;8.68;2.10;;;;;;;;;;5039567;28;20032;-77
2023/04/10 11:06:05;;;;;;;7.70;1.73;;;;;;;;;;5038502;28;20054;-76
2023/04/10 11:08:47;;;;;;;5.57;1.83;;;;;;;;;;5039079;28;20034;-74
2023/04/10 11:11:22;;;;;;;;;;;;;;;;;;5039297;28;20049;-75
2023/04/10 11:13:56;;;;;;;13.93;1.70;;;;;;;;;;5037873;28;19948;-75
2023/04/10 11:16:35;;;;;;;6.13;1.45;;;;;;;;;;5034201;28;20053;-75
2023/04/10 11:19:07;;;;;;;8.45;1.15;;;;;;;;;;5030640;28;20393;-74
2023/04/10 11:22:04;;;;;;;3.40;1.20;;;;;;;;;;5048389;28;20049;-74
2023/04/10 11:25:09;;;;;;;9.10;1.20;;;;;;;;;;5044888;28;20056;-74
2023/04/10 11:27:51;;;;;;;3.35;1.27;;;;;;;;;;5037188;28;20060;-74
2023/04/10 11:30:31;;;;;;;3.67;1.20;;;;;;;;;;5048978;28;20056;-76
2023/04/10 11:33:03;;;;;;;6.57;1.90;;;;;;;;;;5048281;28;20115;-75
2023/04/10 11:35:35;;;;;;;0.75;0.70;;;;;;;;;;5047936;28;20048;-75
2023/04/10 11:38:09;;;;;;;1.83;1.10;;;;;;;;;;5048366;28;20419;-76
2023/04/10 11:41:01;;;;;;;4.20;1.10;;;;;;;;;;5047907;28;20045;-75
2023/04/10 11:43:32;;;;;;;8.07;1.30;;;;;;;;;;5047857;28;20053;-75
2023/04/10 11:46:07;;;;;;;2.53;0.75;;;;;;;;;;5047158;28;20064;-75
2023/04/10 11:48:38;;;;;;;5.40;0.82;;;;;;;;;;5047896;28;20045;-75
2023/04/10 11:51:11;;;;;;;4.13;0.90;;;;;;;;;;5048410;28;20674;-74
2023/04/10 11:53:43;;;;;;;7.82;1.30;;;;;;;;;;5047881;28;20048;-74
2023/04/10 11:56:22;;;;;;;10.65;1.77;;;;;;;;;;5048000;28;20045;-75
2023/04/10 11:58:53;;;;;;;2.97;1.00;;;;;;;;;;5046641;28;20530;-75
2023/04/10 12:01:24;;;;;;;4.07;0.85;;;;;;;;;;5047595;28;20053;-75
2023/04/10 12:03:55;;;;;;;1.60;0.88;;;;;;;;;;5047508;28;20049;-75
2023/04/10 12:06:26;;;;;;;4.28;0.90;;;;;;;;;;5046897;28;20071;-75
2023/04/10 12:08:58;;;;;;;4.78;0.70;;;;;;;;;;5047353;28;20538;-75
2023/04/10 12:11:28;;;;;;;3.17;0.73;;;;;;;;;;5047598;28;20056;-75
2023/04/10 12:13:58;;;;;;;1.63;0.65;;;;;;;;;;5047897;28;20057;-74
2023/04/10 12:16:29;;;;;;;4.53;0.80;;;;;;;;;;5048011;28;20049;-75
2023/04/10 12:19:00;;;;;;;2.83;0.80;;;;;;;;;;5047242;28;20052;-75
2023/04/10 12:21:32;;;;;;;3.10;0.77;;;;;;;;;;5047081;28;20526;-76
2023/04/10 12:24:04;;;;;;;2.63;0.93;;;;;;;;;;5047119;28;20052;-75
2023/04/10 12:26:35;;;;;;;4.75;0.75;;;;;;;;;;5047188;28;20100;-75
2023/04/10 12:29:08;;;;;;;2.95;0.65;;;;;;;;;;5045663;28;20057;-75
2023/04/10 12:31:39;;;;;;;2.17;0.80;;;;;;;;;;5046183;28;20630;-76
2023/04/10 12:34:17;;;;;;;1.20;0.80;;;;;;;;;;5047434;28;20049;-80
2023/04/10 12:36:52;;;;;;;2.08;0.85;;;;;;;;;;5047392;28;20040;-78
2023/04/10 12:39:25;;;;;;;2.83;0.93;;;;;;;;;;5047646;28;20049;-76
2023/04/10 12:42:18;;;;;;;3.63;0.80;;;;;;;;;;5046926;28;20052;-76
2023/04/10 12:45:00;;;;;;;3.45;0.60;;;;;;;;;;5046708;28;20061;-76
2023/04/10 12:47:30;;;;;;;2.50;0.60;;;;;;;;;;5046652;28;20640;-73
2023/04/10 12:50:10;;;;;;;1.50;0.63;;;;;;;;;;5046934;28;20441;-75
2023/04/10 12:53:00;;;;;;;1.85;0.70;;;;;;;;;;5046953;28;20053;-75
2023/04/10 12:55:30;;;;;;;2.95;0.70;;;;;;;;;;5045694;28;20056;-76
2023/04/10 12:58:27;;;;;;;3.53;0.70;;;;;;;;;;5045533;28;20057;-80
2023/04/10 13:01:02;;;;;;;3.35;0.80;;;;;;;;;;5046368;28;20500;-75
2023/04/10 13:03:38;;;;;;;3.53;1.17;;;;;;;;;;5046600;28;20052;-76
2023/04/10 13:06:09;;;;;;;8.57;1.00;;;;;;;;;;5045871;28;20037;-75
2023/04/10 13:08:39;;;;;;;2.10;0.60;;;;;;;;;;5045223;28;20056;-81
2023/04/10 13:11:11;;;;;;;2.70;0.70;;;;;;;;;;5046659;28;20049;-80
2023/04/10 13:13:42;;;;;;;3.97;1.60;;;;;;;;;;5044978;28;20060;-76
2023/04/10 13:16:12;;;;;;;1.95;0.60;;;;;;;;;;5047347;28;20045;-76
2023/04/10 13:18:44;;;;;;;1.88;0.65;;;;;;;;;;5046550;28;20041;-75
2023/04/10 13:21:18;;;;;;;5.30;0.80;;;;;;;;;;5046429;28;20044;-76
2023/04/10 13:23:50;;;;;;;2.80;0.70;;;;;;;;;;5046234;28;20048;-77
2023/04/10 13:26:21;;;;;;;2.53;0.68;;;;;;;;;;5046323;28;20108;-75
2023/04/10 13:28:52;;;;;;;1.58;0.65;;;;;;;;;;5045733;28;20045;-74
2023/04/10 13:31:22;;;;;;;1.17;0.60;;;;;;;;;;5046046;28;20563;-74
2023/04/10 13:33:53;;;;;;;0.77;0.47;;;;;;;;;;5046370;28;20053;-75
2023/04/10 13:36:23;;;;;;;2.75;1.00;;;;;;;;;;5045944;28;20041;-74
2023/04/10 13:38:54;;;;;;;3.55;0.50;;;;;;;;;;5046351;28;20056;-75
2023/04/10 13:41:25;;;;;;;1.40;0.50;;;;;;;;;;5046328;28;20063;-75
2023/04/10 13:43:54;;;;;;;2.28;0.70;;;;;;;;;;5046256;28;20041;-74
2023/04/10 13:46:26;;;;;;;2.25;0.60;;;;;;;;;;5046569;28;20052;-74
2023/04/10 13:48:57;;;;;;;0.98;0.60;;;;;;;;;;5045540;28;20053;-74
2023/04/10 13:51:28;;;;;;;4.43;0.70;;;;;;;;;;5046909;28;20049;-73
2023/04/10 13:53:58;;;;;;;4.20;0.77;;;;;;;;;;5045974;28;20522;-74
2023/04/10 13:56:29;;;;;;;4.95;0.90;;;;;;;;;;5045919;28;20048;-76
2023/04/10 13:59:00;;;;;;;5.85;1.10;;;;;;;;;;5046757;28;20069;-76
2023/04/10 14:01:29;;;;;;;4.85;2.55;;;;;;;;;;5045905;28;20060;-75
2023/04/10 14:03:59;;;;;;;1.60;0.85;;;;;;;;;;5046643;28;20045;-74
2023/04/10 14:06:30;;;;;;;6.65;1.35;;;;;;;;;;5046229;28;20736;-74
2023/04/10 14:09:01;;;;;;;2.75;1.23;;;;;;;;;;5028620;28;20052;-76
2023/04/10 14:11:31;;;;;;;1.67;0.80;;;;;;;;;;5050253;28;20617;-76
2023/04/10 14:14:02;;;;;;;1.98;1.10;;;;;;;;;;5049846;28;20052;-75
2023/04/10 14:16:32;;;;;;;3.22;1.00;;;;;;;;;;5050345;28;20041;-73
2023/04/10 14:19:02;;;;;;;1.48;1.23;;;;;;;;;;5050040;28;20049;-75
2023/04/10 14:21:33;;;;;;;1.83;1.20;;;;;;;;;;5049748;28;20077;-74
2023/04/10 14:24:03;;;;;;;2.35;1.30;;;;;;;;;;5048825;28;20064;-75
2023/04/10 14:26:33;;;;;;;1.65;1.10;;;;;;;;;;5049580;28;20048;-73
2023/04/10 14:29:03;;;;;;;4.43;1.25;;;;;;;;;;5049438;28;20045;-74
2023/04/10 14:31:36;;;;;;;6.18;1.63;;;;;;;;;;5048780;28;20040;-74
2023/04/10 14:34:25;;;;;;;2.60;1.38;;;;;;;;;;5049455;28;20056;-73
2023/04/10 14:36:57;;;;;;;3.58;1.50;;;;;;;;;;5049739;28;20037;-74
2023/04/10 14:39:28;;;;;;;4.40;1.50;;;;;;;;;;5049499;28;20045;-74
2023/04/10 14:41:58;;;;;;;1.85;1.20;;;;;;;;;;5049717;28;20079;-74
2023/04/10 14:44:31;;;;;;;2.40;1.33;;;;;;;;;;5049268;28;20407;-73
2023/04/10 14:47:04;;;;;;;6.80;1.35;;;;;;;;;;5048698;28;20060;-73
2023/04/10 14:49:35;;;;;;;3.65;1.60;;;;;;;;;;5049281;28;20045;-74
2023/04/10 14:52:05;;;;;;;6.47;1.23;;;;;;;;;;5031822;28;20056;-75
2023/04/10 14:54:36;;;;;;;1.77;1.17;;;;;;;;;;5049313;28;20120;-76
2023/04/10 14:57:07;;;;;;;4.38;1.60;;;;;;;;;;5048877;28;20060;-75
2023/04/10 14:59:38;;;;;;;5.45;1.70;;;;;;;;;;5048756;28;20052;-75
2023/04/10 15:02:08;;;;;;;2.88;1.45;;;;;;;;;;5049176;28;20041;-74
2023/04/10 15:04:41;;;;;;;3.38;1.55;;;;;;;;;;5049513;28;20045;-75
2023/04/10 15:07:13;;;;;;;2.83;1.30;;;;;;;;;;5046964;28;20057;-74
2023/04/10 15:09:45;;;;;;;2.08;1.17;;;;;;;;;;5048510;28;20053;-75
2023/04/10 15:12:15;;;;;;;1.90;1.23;;;;;;;;;;5048533;28;20060;-74
2023/04/10 15:14:46;;;;;;;4.68;1.17;;;;;;;;;;5049125;28;20045;-74
2023/04/10 15:17:16;;;;;;;2.65;0.80;;;;;;;;;;5048446;28;20045;-74
2023/04/10 15:19:46;;;;;;;3.83;1.00;;;;;;;;;;5046727;28;20045;-74
2023/04/10 15:22:16;;;;;;;5.22;1.30;;;;;;;;;;5047623;28;20040;-75
2023/04/10 15:24:47;;;;;;;2.53;0.90;;;;;;;;;;5048690;28;20060;-75
2023/04/10 15:27:22;;;;;;;1.63;0.85;;;;;;;;;;5048965;28;20041;-75
2023/04/10 15:29:52;;;;;;;1.63;0.80;;;;;;;;;;5048888;28;20037;-75